VVNB Airport Information

Runway Information
Runway 11L Length 12466 ft width 148 ft
Elevation 40 ft Threshold 0 ft Heading 107
Runway 29R Length 12466 ft Width 148 ft
Elevation 40 ft Threshold 0 ft Heading 287
Runway 11R Length 12466 ft width 148 ft
Elevation 38 ft Threshold 0 ft Heading 107
Runway 29L Length 12466 ft Width 148 ft
Elevation 39 ft Threshold 0 ft Heading 287
Airport Frequencies
Type APP Name APP Frequency 125.1 MHZ
Type GND Name GND Frequency 121.9 MHZ
Type TWR Name TWR Frequency 118.2 MHZ
Airport Navaids
Type NDB Name Noibai Frequency 230 KHZ
Type NDB Name Noibai Frequency 320 KHZ
Type VOR-DME Name Noibai Frequency 116100 KHZ
Airport Weather Information & NOTAM
ADDS - METARS form results

(0139 UTC 23 April 2018)
 
METAR text: VVNB 230130Z 12006KT 4100 -RA BR BKN005 26/25 Q1007 NOSIG
Conditions at: VVNB (HANOI/NOIBAI INT, VN) observed 0130 UTC 23 April 2018
Temperature: 26.0°C (79°F)
Dewpoint: 25.0°C (77°F) [RH = 94%]
Pressure (altimeter): 29.73 inches Hg (1007.0 mb)
Winds: from the ESE (120 degrees) at 7 MPH (6 knots; 3.1 m/s)
Visibility: 2.55 miles (4.10 km)
Ceiling: 500 feet AGL
Clouds: broken clouds at 500 feet AGL
Weather: -RA BR  (light rain, mist)

METAR text: VVNB 230100Z 11005KT 2400 BR FEW004 BKN006 25/24 Q1007 NOSIG
Conditions at: VVNB (HANOI/NOIBAI INT, VN) observed 0100 UTC 23 April 2018
Temperature: 25.0°C (77°F)
Dewpoint: 24.0°C (75°F) [RH = 94%]
Pressure (altimeter): 29.73 inches Hg (1007.0 mb)
Winds: from the ESE (110 degrees) at 6 MPH (5 knots; 2.6 m/s)
Visibility: 1.49 miles (2.40 km)
Ceiling: 600 feet AGL
Clouds: few clouds at 400 feet AGL
broken clouds at 600 feet AGL
Weather: BR  (mist)